sensor_id;sensor_type;location;lat;lon;timestamp;P1;durP1;ratioP1;P2;durP2;ratioP2
75234;SDS011;63817;51.228;-1.472;2023-04-15T00:01:01;14.68;;;10.70;;
75234;SDS011;63817;51.228;-1.472;2023-04-15T00:03:26;15.85;;;11.88;;
75234;SDS011;63817;51.228;-1.472;2023-04-15T00:05:52;16.70;;;11.20;;
75234;SDS011;63817;51.228;-1.472;2023-04-15T00:08:18;16.67;;;11.95;;
75234;SDS011;63817;51.228;-1.472;2023-04-15T00:10:44;14.40;;;10.80;;
75234;SDS011;63817;51.228;-1.472;2023-04-15T00:13:10;12.70;;;10.38;;
75234;SDS011;63817;51.228;-1.472;2023-04-15T00:15:36;17.33;;;12.18;;
75234;SDS011;63817;51.228;-1.472;2023-04-15T00:18:02;17.67;;;11.95;;
75234;SDS011;63817;51.228;-1.472;2023-04-15T00:20:28;17.15;;;12.43;;
75234;SDS011;63817;51.228;-1.472;2023-04-15T00:22:54;17.50;;;12.68;;
75234;SDS011;63817;51.228;-1.472;2023-04-15T00:25:19;17.98;;;12.48;;
75234;SDS011;63817;51.228;-1.472;2023-04-15T00:27:44;15.13;;;11.55;;
75234;SDS011;63817;51.228;-1.472;2023-04-15T00:30:10;16.73;;;12.27;;
75234;SDS011;63817;51.228;-1.472;2023-04-15T00:32:35;23.33;;;12.93;;
75234;SDS011;63817;51.228;-1.472;2023-04-15T00:35:01;19.85;;;14.30;;
75234;SDS011;63817;51.228;-1.472;2023-04-15T00:37:27;19.23;;;13.35;;
75234;SDS011;63817;51.228;-1.472;2023-04-15T00:39:52;18.90;;;14.10;;
75234;SDS011;63817;51.228;-1.472;2023-04-15T00:42:17;22.13;;;14.57;;
75234;SDS011;63817;51.228;-1.472;2023-04-15T00:44:44;18.90;;;12.57;;
75234;SDS011;63817;51.228;-1.472;2023-04-15T00:47:09;23.15;;;14.20;;
75234;SDS011;63817;51.228;-1.472;2023-04-15T00:49:35;19.73;;;13.27;;
75234;SDS011;63817;51.228;-1.472;2023-04-15T00:52:00;23.02;;;13.63;;
75234;SDS011;63817;51.228;-1.472;2023-04-15T00:54:26;21.00;;;13.50;;
75234;SDS011;63817;51.228;-1.472;2023-04-15T00:56:52;22.38;;;14.77;;
75234;SDS011;63817;51.228;-1.472;2023-04-15T00:59:17;23.80;;;14.57;;
75234;SDS011;63817;51.228;-1.472;2023-04-15T01:01:44;22.98;;;15.13;;
75234;SDS011;63817;51.228;-1.472;2023-04-15T01:04:10;25.00;;;15.48;;
75234;SDS011;63817;51.228;-1.472;2023-04-15T01:06:36;23.63;;;16.67;;
75234;SDS011;63817;51.228;-1.472;2023-04-15T01:09:01;23.67;;;16.20;;
75234;SDS011;63817;51.228;-1.472;2023-04-15T01:11:27;26.10;;;15.18;;
75234;SDS011;63817;51.228;-1.472;2023-04-15T01:13:54;24.65;;;16.55;;
75234;SDS011;63817;51.228;-1.472;2023-04-15T01:16:20;24.33;;;15.55;;
75234;SDS011;63817;51.228;-1.472;2023-04-15T01:18:46;26.00;;;16.08;;
75234;SDS011;63817;51.228;-1.472;2023-04-15T01:21:11;24.25;;;15.60;;
75234;SDS011;63817;51.228;-1.472;2023-04-15T01:23:38;26.45;;;17.08;;
75234;SDS011;63817;51.228;-1.472;2023-04-15T01:26:04;27.02;;;16.45;;
75234;SDS011;63817;51.228;-1.472;2023-04-15T01:28:31;26.30;;;17.52;;
75234;SDS011;63817;51.228;-1.472;2023-04-15T01:31:10;28.38;;;18.13;;
75234;SDS011;63817;51.228;-1.472;2023-04-15T01:33:37;28.48;;;17.45;;
75234;SDS011;63817;51.228;-1.472;2023-04-15T01:36:04;29.13;;;17.90;;
75234;SDS011;63817;51.228;-1.472;2023-04-15T01:38:31;31.63;;;18.23;;
75234;SDS011;63817;51.228;-1.472;2023-04-15T01:40:57;33.53;;;17.90;;
75234;SDS011;63817;51.228;-1.472;2023-04-15T01:43:23;30.30;;;17.10;;
75234;SDS011;63817;51.228;-1.472;2023-04-15T01:45:49;31.95;;;17.08;;
75234;SDS011;63817;51.228;-1.472;2023-04-15T01:48:14;29.90;;;18.42;;
75234;SDS011;63817;51.228;-1.472;2023-04-15T01:50:40;27.77;;;16.80;;
75234;SDS011;63817;51.228;-1.472;2023-04-15T01:53:07;28.70;;;17.90;;
75234;SDS011;63817;51.228;-1.472;2023-04-15T01:55:32;29.23;;;18.73;;
75234;SDS011;63817;51.228;-1.472;2023-04-15T01:57:58;28.35;;;18.48;;
75234;SDS011;63817;51.228;-1.472;2023-04-15T02:00:23;30.00;;;18.10;;
75234;SDS011;63817;51.228;-1.472;2023-04-15T02:02:49;31.30;;;17.67;;
75234;SDS011;63817;51.228;-1.472;2023-04-15T02:05:15;28.23;;;17.55;;
75234;SDS011;63817;51.228;-1.472;2023-04-15T02:07:43;30.50;;;18.45;;
75234;SDS011;63817;51.228;-1.472;2023-04-15T02:10:09;29.58;;;16.90;;
75234;SDS011;63817;51.228;-1.472;2023-04-15T02:12:37;31.88;;;18.30;;
75234;SDS011;63817;51.228;-1.472;2023-04-15T02:15:03;28.45;;;16.88;;
75234;SDS011;63817;51.228;-1.472;2023-04-15T02:17:29;27.77;;;17.98;;
75234;SDS011;63817;51.228;-1.472;2023-04-15T02:19:55;29.08;;;17.42;;
75234;SDS011;63817;51.228;-1.472;2023-04-15T02:22:21;29.23;;;17.55;;
75234;SDS011;63817;51.228;-1.472;2023-04-15T02:24:46;28.98;;;16.73;;
75234;SDS011;63817;51.228;-1.472;2023-04-15T02:27:15;26.75;;;16.27;;
75234;SDS011;63817;51.228;-1.472;2023-04-15T02:29:44;28.63;;;17.45;;
75234;SDS011;63817;51.228;-1.472;2023-04-15T02:32:13;29.88;;;18.00;;
75234;SDS011;63817;51.228;-1.472;2023-04-15T02:34:39;29.13;;;17.40;;
75234;SDS011;63817;51.228;-1.472;2023-04-15T02:37:06;29.50;;;18.33;;
75234;SDS011;63817;51.228;-1.472;2023-04-15T02:39:35;29.13;;;17.25;;
75234;SDS011;63817;51.228;-1.472;2023-04-15T02:42:00;30.33;;;18.45;;
75234;SDS011;63817;51.228;-1.472;2023-04-15T02:44:26;31.60;;;18.48;;
75234;SDS011;63817;51.228;-1.472;2023-04-15T02:46:52;31.65;;;18.77;;
75234;SDS011;63817;51.228;-1.472;2023-04-15T02:49:21;32.53;;;19.83;;
75234;SDS011;63817;51.228;-1.472;2023-04-15T02:51:47;33.92;;;20.95;;
75234;SDS011;63817;51.228;-1.472;2023-04-15T02:54:16;31.45;;;19.88;;
75234;SDS011;63817;51.228;-1.472;2023-04-15T02:56:43;33.38;;;19.73;;
75234;SDS011;63817;51.228;-1.472;2023-04-15T02:59:08;34.33;;;20.88;;
75234;SDS011;63817;51.228;-1.472;2023-04-15T03:01:34;32.78;;;19.38;;
75234;SDS011;63817;51.228;-1.472;2023-04-15T03:03:59;35.60;;;20.20;;
75234;SDS011;63817;51.228;-1.472;2023-04-15T03:06:25;30.70;;;19.98;;
75234;SDS011;63817;51.228;-1.472;2023-04-15T03:08:50;31.92;;;18.33;;
75234;SDS011;63817;51.228;-1.472;2023-04-15T03:11:15;34.38;;;20.75;;
75234;SDS011;63817;51.228;-1.472;2023-04-15T03:13:41;32.03;;;19.17;;
75234;SDS011;63817;51.228;-1.472;2023-04-15T03:16:07;33.05;;;19.60;;
75234;SDS011;63817;51.228;-1.472;2023-04-15T03:18:33;30.58;;;19.70;;
75234;SDS011;63817;51.228;-1.472;2023-04-15T03:20:58;29.98;;;19.58;;
75234;SDS011;63817;51.228;-1.472;2023-04-15T03:23:24;35.83;;;21.83;;
75234;SDS011;63817;51.228;-1.472;2023-04-15T03:25:49;35.05;;;19.95;;
75234;SDS011;63817;51.228;-1.472;2023-04-15T03:28:15;32.45;;;19.67;;
75234;SDS011;63817;51.228;-1.472;2023-04-15T03:30:40;31.45;;;19.77;;
75234;SDS011;63817;51.228;-1.472;2023-04-15T03:33:06;34.35;;;20.30;;
75234;SDS011;63817;51.228;-1.472;2023-04-15T03:35:31;35.92;;;19.58;;
75234;SDS011;63817;51.228;-1.472;2023-04-15T03:37:57;32.15;;;19.50;;
75234;SDS011;63817;51.228;-1.472;2023-04-15T03:40:22;34.30;;;19.63;;
75234;SDS011;63817;51.228;-1.472;2023-04-15T03:42:47;33.35;;;18.25;;
75234;SDS011;63817;51.228;-1.472;2023-04-15T03:45:13;35.05;;;19.58;;
75234;SDS011;63817;51.228;-1.472;2023-04-15T03:47:38;33.70;;;18.15;;
75234;SDS011;63817;51.228;-1.472;2023-04-15T03:50:04;30.30;;;18.33;;
75234;SDS011;63817;51.228;-1.472;2023-04-15T03:52:29;31.50;;;17.95;;
75234;SDS011;63817;51.228;-1.472;2023-04-15T03:54:55;32.45;;;19.27;;
75234;SDS011;63817;51.228;-1.472;2023-04-15T03:57:20;33.63;;;19.55;;
75234;SDS011;63817;51.228;-1.472;2023-04-15T03:59:46;36.55;;;19.75;;
75234;SDS011;63817;51.228;-1.472;2023-04-15T04:02:11;34.75;;;20.27;;
75234;SDS011;63817;51.228;-1.472;2023-04-15T04:04:36;35.30;;;19.05;;
75234;SDS011;63817;51.228;-1.472;2023-04-15T04:07:02;32.83;;;18.77;;
75234;SDS011;63817;51.228;-1.472;2023-04-15T04:09:27;36.55;;;20.35;;
75234;SDS011;63817;51.228;-1.472;2023-04-15T04:11:53;32.10;;;18.10;;
75234;SDS011;63817;51.228;-1.472;2023-04-15T04:14:18;34.47;;;19.10;;
75234;SDS011;63817;51.228;-1.472;2023-04-15T04:16:44;33.45;;;20.27;;
75234;SDS011;63817;51.228;-1.472;2023-04-15T04:19:09;33.28;;;19.52;;
75234;SDS011;63817;51.228;-1.472;2023-04-15T04:21:35;32.30;;;18.00;;
75234;SDS011;63817;51.228;-1.472;2023-04-15T04:24:00;35.13;;;21.50;;
75234;SDS011;63817;51.228;-1.472;2023-04-15T04:26:26;34.20;;;19.67;;
75234;SDS011;63817;51.228;-1.472;2023-04-15T04:28:51;32.92;;;19.35;;
75234;SDS011;63817;51.228;-1.472;2023-04-15T04:31:17;34.75;;;19.77;;
75234;SDS011;63817;51.228;-1.472;2023-04-15T04:33:42;33.72;;;19.67;;
75234;SDS011;63817;51.228;-1.472;2023-04-15T04:36:08;36.88;;;21.23;;
75234;SDS011;63817;51.228;-1.472;2023-04-15T04:38:33;37.58;;;21.55;;
75234;SDS011;63817;51.228;-1.472;2023-04-15T04:40:59;38.55;;;21.23;;
75234;SDS011;63817;51.228;-1.472;2023-04-15T04:43:24;35.20;;;20.63;;
75234;SDS011;63817;51.228;-1.472;2023-04-15T04:45:50;36.30;;;21.58;;
75234;SDS011;63817;51.228;-1.472;2023-04-15T04:48:16;37.67;;;21.85;;
75234;SDS011;63817;51.228;-1.472;2023-04-15T04:50:41;37.85;;;21.13;;
75234;SDS011;63817;51.228;-1.472;2023-04-15T04:53:07;37.55;;;21.50;;
75234;SDS011;63817;51.228;-1.472;2023-04-15T04:55:32;36.63;;;20.33;;
75234;SDS011;63817;51.228;-1.472;2023-04-15T04:58:02;33.05;;;19.42;;
75234;SDS011;63817;51.228;-1.472;2023-04-15T05:00:27;35.05;;;19.73;;
75234;SDS011;63817;51.228;-1.472;2023-04-15T05:02:53;34.90;;;19.23;;
75234;SDS011;63817;51.228;-1.472;2023-04-15T05:05:19;27.75;;;16.85;;
75234;SDS011;63817;51.228;-1.472;2023-04-15T05:07:44;30.23;;;18.92;;
75234;SDS011;63817;51.228;-1.472;2023-04-15T05:10:10;30.85;;;17.92;;
75234;SDS011;63817;51.228;-1.472;2023-04-15T05:12:35;32.95;;;19.67;;
75234;SDS011;63817;51.228;-1.472;2023-04-15T05:15:02;33.25;;;18.85;;
75234;SDS011;63817;51.228;-1.472;2023-04-15T05:17:29;40.15;;;21.45;;
75234;SDS011;63817;51.228;-1.472;2023-04-15T05:19:57;35.97;;;20.75;;
75234;SDS011;63817;51.228;-1.472;2023-04-15T05:22:22;34.03;;;18.85;;
75234;SDS011;63817;51.228;-1.472;2023-04-15T05:24:48;36.15;;;20.75;;
75234;SDS011;63817;51.228;-1.472;2023-04-15T05:27:13;39.55;;;21.77;;
75234;SDS011;63817;51.228;-1.472;2023-04-15T05:29:39;37.72;;;22.17;;
75234;SDS011;63817;51.228;-1.472;2023-04-15T05:32:05;34.55;;;20.00;;
75234;SDS011;63817;51.228;-1.472;2023-04-15T05:34:31;32.95;;;20.33;;
75234;SDS011;63817;51.228;-1.472;2023-04-15T05:36:56;34.55;;;21.35;;
75234;SDS011;63817;51.228;-1.472;2023-04-15T05:39:22;36.08;;;20.25;;
75234;SDS011;63817;51.228;-1.472;2023-04-15T05:41:47;34.58;;;19.75;;
75234;SDS011;63817;51.228;-1.472;2023-04-15T05:44:12;32.45;;;19.88;;
75234;SDS011;63817;51.228;-1.472;2023-04-15T05:46:38;33.03;;;20.17;;
75234;SDS011;63817;51.228;-1.472;2023-04-15T05:49:03;36.55;;;20.38;;
75234;SDS011;63817;51.228;-1.472;2023-04-15T05:51:29;36.55;;;20.15;;
75234;SDS011;63817;51.228;-1.472;2023-04-15T05:53:54;33.75;;;18.67;;
75234;SDS011;63817;51.228;-1.472;2023-04-15T05:56:19;34.15;;;19.75;;
75234;SDS011;63817;51.228;-1.472;2023-04-15T05:58:46;30.33;;;19.65;;
75234;SDS011;63817;51.228;-1.472;2023-04-15T06:01:11;31.83;;;19.83;;
75234;SDS011;63817;51.228;-1.472;2023-04-15T06:03:36;33.47;;;19.85;;
75234;SDS011;63817;51.228;-1.472;2023-04-15T06:06:02;34.70;;;20.48;;
75234;SDS011;63817;51.228;-1.472;2023-04-15T06:08:28;36.40;;;19.95;;
75234;SDS011;63817;51.228;-1.472;2023-04-15T06:10:53;34.17;;;19.88;;
75234;SDS011;63817;51.228;-1.472;2023-04-15T06:13:19;40.90;;;20.45;;
75234;SDS011;63817;51.228;-1.472;2023-04-15T06:15:44;37.75;;;21.52;;
75234;SDS011;63817;51.228;-1.472;2023-04-15T06:18:10;34.90;;;20.85;;
75234;SDS011;63817;51.228;-1.472;2023-04-15T06:20:35;31.38;;;18.80;;
75234;SDS011;63817;51.228;-1.472;2023-04-15T06:23:01;34.63;;;20.50;;
75234;SDS011;63817;51.228;-1.472;2023-04-15T06:25:27;37.38;;;21.48;;
75234;SDS011;63817;51.228;-1.472;2023-04-15T06:27:52;32.30;;;19.00;;
75234;SDS011;63817;51.228;-1.472;2023-04-15T06:30:17;30.40;;;18.58;;
75234;SDS011;63817;51.228;-1.472;2023-04-15T06:32:43;31.70;;;18.10;;
75234;SDS011;63817;51.228;-1.472;2023-04-15T06:35:08;29.23;;;18.75;;
75234;SDS011;63817;51.228;-1.472;2023-04-15T06:37:34;29.27;;;18.58;;
75234;SDS011;63817;51.228;-1.472;2023-04-15T06:39:59;29.80;;;17.45;;
75234;SDS011;63817;51.228;-1.472;2023-04-15T06:42:25;28.27;;;17.80;;
75234;SDS011;63817;51.228;-1.472;2023-04-15T06:44:50;30.65;;;20.15;;
75234;SDS011;63817;51.228;-1.472;2023-04-15T06:47:15;29.33;;;18.25;;
75234;SDS011;63817;51.228;-1.472;2023-04-15T06:49:41;29.90;;;17.45;;
75234;SDS011;63817;51.228;-1.472;2023-04-15T06:52:07;38.67;;;19.63;;
75234;SDS011;63817;51.228;-1.472;2023-04-15T06:54:32;31.10;;;18.75;;
75234;SDS011;63817;51.228;-1.472;2023-04-15T06:56:58;27.27;;;17.40;;
75234;SDS011;63817;51.228;-1.472;2023-04-15T06:59:23;31.52;;;19.17;;
75234;SDS011;63817;51.228;-1.472;2023-04-15T07:01:49;31.77;;;20.20;;
75234;SDS011;63817;51.228;-1.472;2023-04-15T07:04:15;29.23;;;18.42;;
75234;SDS011;63817;51.228;-1.472;2023-04-15T07:06:40;27.52;;;16.58;;
75234;SDS011;63817;51.228;-1.472;2023-04-15T07:09:06;26.73;;;15.55;;
75234;SDS011;63817;51.228;-1.472;2023-04-15T07:11:32;24.10;;;15.18;;
75234;SDS011;63817;51.228;-1.472;2023-04-15T07:13:58;18.58;;;14.20;;
75234;SDS011;63817;51.228;-1.472;2023-04-15T07:16:23;21.60;;;13.43;;
75234;SDS011;63817;51.228;-1.472;2023-04-15T07:18:48;18.92;;;12.48;;
75234;SDS011;63817;51.228;-1.472;2023-04-15T07:21:14;20.30;;;13.23;;
75234;SDS011;63817;51.228;-1.472;2023-04-15T07:23:40;20.00;;;13.43;;
75234;SDS011;63817;51.228;-1.472;2023-04-15T07:26:07;19.30;;;13.10;;
75234;SDS011;63817;51.228;-1.472;2023-04-15T07:28:32;18.40;;;12.82;;
75234;SDS011;63817;51.228;-1.472;2023-04-15T07:30:58;18.05;;;13.00;;
75234;SDS011;63817;51.228;-1.472;2023-04-15T07:33:23;19.27;;;11.95;;
75234;SDS011;63817;51.228;-1.472;2023-04-15T07:35:49;21.90;;;12.57;;
75234;SDS011;63817;51.228;-1.472;2023-04-15T07:38:14;22.30;;;11.75;;
75234;SDS011;63817;51.228;-1.472;2023-04-15T07:40:40;17.42;;;11.77;;
75234;SDS011;63817;51.228;-1.472;2023-04-15T07:43:06;16.80;;;11.55;;
75234;SDS011;63817;51.228;-1.472;2023-04-15T07:45:31;19.90;;;12.13;;
75234;SDS011;63817;51.228;-1.472;2023-04-15T07:47:57;16.63;;;11.20;;
75234;SDS011;63817;51.228;-1.472;2023-04-15T07:50:22;19.30;;;11.88;;
75234;SDS011;63817;51.228;-1.472;2023-04-15T07:52:51;17.08;;;11.52;;
75234;SDS011;63817;51.228;-1.472;2023-04-15T07:55:17;20.27;;;12.13;;
75234;SDS011;63817;51.228;-1.472;2023-04-15T07:57:45;21.38;;;12.25;;
75234;SDS011;63817;51.228;-1.472;2023-04-15T08:00:11;15.55;;;11.20;;
75234;SDS011;63817;51.228;-1.472;2023-04-15T08:02:37;19.00;;;12.45;;
75234;SDS011;63817;51.228;-1.472;2023-04-15T08:05:03;18.08;;;12.90;;
75234;SDS011;63817;51.228;-1.472;2023-04-15T08:07:29;19.23;;;12.95;;
75234;SDS011;63817;51.228;-1.472;2023-04-15T08:09:55;34.83;;;16.45;;
75234;SDS011;63817;51.228;-1.472;2023-04-15T08:12:20;20.10;;;13.80;;
75234;SDS011;63817;51.228;-1.472;2023-04-15T08:14:46;28.08;;;14.07;;
75234;SDS011;63817;51.228;-1.472;2023-04-15T08:17:11;20.52;;;12.48;;
75234;SDS011;63817;51.228;-1.472;2023-04-15T08:19:37;19.02;;;13.00;;
75234;SDS011;63817;51.228;-1.472;2023-04-15T08:22:02;19.58;;;13.32;;
75234;SDS011;63817;51.228;-1.472;2023-04-15T08:24:28;18.45;;;12.70;;
75234;SDS011;63817;51.228;-1.472;2023-04-15T08:26:55;24.35;;;13.85;;
75234;SDS011;63817;51.228;-1.472;2023-04-15T08:29:21;21.00;;;13.35;;
75234;SDS011;63817;51.228;-1.472;2023-04-15T08:31:47;20.33;;;13.13;;
75234;SDS011;63817;51.228;-1.472;2023-04-15T08:34:12;22.60;;;13.25;;
75234;SDS011;63817;51.228;-1.472;2023-04-15T08:36:39;20.08;;;13.02;;
75234;SDS011;63817;51.228;-1.472;2023-04-15T08:39:04;22.23;;;13.75;;
75234;SDS011;63817;51.228;-1.472;2023-04-15T08:41:39;19.10;;;12.68;;
75234;SDS011;63817;51.228;-1.472;2023-04-15T08:44:32;20.98;;;13.88;;
75234;SDS011;63817;51.228;-1.472;2023-04-15T08:47:01;20.80;;;13.30;;
75234;SDS011;63817;51.228;-1.472;2023-04-15T08:49:27;22.52;;;14.07;;
75234;SDS011;63817;51.228;-1.472;2023-04-15T08:51:53;22.25;;;13.93;;
75234;SDS011;63817;51.228;-1.472;2023-04-15T08:54:20;18.90;;;11.27;;
75234;SDS011;63817;51.228;-1.472;2023-04-15T08:56:46;17.88;;;11.73;;
75234;SDS011;63817;51.228;-1.472;2023-04-15T08:59:13;17.42;;;11.13;;
75234;SDS011;63817;51.228;-1.472;2023-04-15T09:01:39;17.20;;;11.38;;
75234;SDS011;63817;51.228;-1.472;2023-04-15T09:04:05;18.50;;;12.60;;
75234;SDS011;63817;51.228;-1.472;2023-04-15T09:06:32;19.83;;;12.57;;
75234;SDS011;63817;51.228;-1.472;2023-04-15T09:08:57;18.48;;;11.55;;
75234;SDS011;63817;51.228;-1.472;2023-04-15T09:11:23;17.23;;;11.85;;
75234;SDS011;63817;51.228;-1.472;2023-04-15T09:13:48;21.67;;;13.00;;
75234;SDS011;63817;51.228;-1.472;2023-04-15T09:16:14;17.92;;;11.00;;
75234;SDS011;63817;51.228;-1.472;2023-04-15T09:18:40;15.00;;;10.65;;
75234;SDS011;63817;51.228;-1.472;2023-04-15T09:23:33;14.77;;;9.63;;
75234;SDS011;63817;51.228;-1.472;2023-04-15T09:25:59;14.32;;;9.27;;
75234;SDS011;63817;51.228;-1.472;2023-04-15T09:28:25;12.88;;;8.60;;
75234;SDS011;63817;51.228;-1.472;2023-04-15T09:30:59;11.30;;;8.13;;
75234;SDS011;63817;51.228;-1.472;2023-04-15T09:33:26;9.10;;;6.82;;
75234;SDS011;63817;51.228;-1.472;2023-04-15T09:35:59;9.38;;;7.03;;
75234;SDS011;63817;51.228;-1.472;2023-04-15T09:38:26;8.57;;;6.90;;
75234;SDS011;63817;51.228;-1.472;2023-04-15T09:40:52;8.90;;;6.13;;
75234;SDS011;63817;51.228;-1.472;2023-04-15T09:43:17;10.88;;;6.25;;
75234;SDS011;63817;51.228;-1.472;2023-04-15T09:45:52;7.82;;;5.93;;
75234;SDS011;63817;51.228;-1.472;2023-04-15T09:50:52;9.20;;;5.93;;
75234;SDS011;63817;51.228;-1.472;2023-04-15T09:53:19;8.05;;;5.45;;
75234;SDS011;63817;51.228;-1.472;2023-04-15T09:55:55;6.88;;;5.18;;
75234;SDS011;63817;51.228;-1.472;2023-04-15T10:00:48;8.25;;;6.35;;
75234;SDS011;63817;51.228;-1.472;2023-04-15T10:03:17;7.97;;;5.60;;
75234;SDS011;63817;51.228;-1.472;2023-04-15T10:05:45;7.38;;;5.80;;
75234;SDS011;63817;51.228;-1.472;2023-04-15T10:08:12;10.00;;;5.97;;
75234;SDS011;63817;51.228;-1.472;2023-04-15T10:10:37;7.47;;;5.97;;
75234;SDS011;63817;51.228;-1.472;2023-04-15T10:13:03;8.18;;;5.65;;
75234;SDS011;63817;51.228;-1.472;2023-04-15T10:15:30;6.28;;;4.55;;
75234;SDS011;63817;51.228;-1.472;2023-04-15T10:17:56;6.93;;;5.40;;
75234;SDS011;63817;51.228;-1.472;2023-04-15T10:20:22;8.25;;;5.53;;
75234;SDS011;63817;51.228;-1.472;2023-04-15T10:22:48;7.80;;;5.72;;
75234;SDS011;63817;51.228;-1.472;2023-04-15T10:25:14;7.75;;;5.38;;
75234;SDS011;63817;51.228;-1.472;2023-04-15T10:27:39;6.47;;;4.57;;
75234;SDS011;63817;51.228;-1.472;2023-04-15T10:30:08;6.13;;;4.55;;
75234;SDS011;63817;51.228;-1.472;2023-04-15T10:32:33;6.65;;;4.43;;
75234;SDS011;63817;51.228;-1.472;2023-04-15T10:35:00;5.50;;;4.28;;
75234;SDS011;63817;51.228;-1.472;2023-04-15T10:37:33;7.43;;;5.00;;
75234;SDS011;63817;51.228;-1.472;2023-04-15T10:40:00;8.23;;;4.32;;
75234;SDS011;63817;51.228;-1.472;2023-04-15T10:42:32;7.40;;;4.93;;
75234;SDS011;63817;51.228;-1.472;2023-04-15T10:44:58;5.43;;;3.88;;
75234;SDS011;63817;51.228;-1.472;2023-04-15T10:47:24;8.02;;;5.65;;
75234;SDS011;63817;51.228;-1.472;2023-04-15T10:52:16;5.38;;;3.72;;
75234;SDS011;63817;51.228;-1.472;2023-04-15T10:54:49;5.13;;;3.40;;
75234;SDS011;63817;51.228;-1.472;2023-04-15T10:57:27;6.30;;;4.32;;
75234;SDS011;63817;51.228;-1.472;2023-04-15T11:00:00;7.40;;;5.57;;
75234;SDS011;63817;51.228;-1.472;2023-04-15T11:02:41;8.70;;;5.43;;
75234;SDS011;63817;51.228;-1.472;2023-04-15T11:05:47;6.38;;;4.18;;
75234;SDS011;63817;51.228;-1.472;2023-04-15T11:08:17;7.05;;;5.07;;
75234;SDS011;63817;51.228;-1.472;2023-04-15T11:20:41;7.90;;;4.45;;
75234;SDS011;63817;51.228;-1.472;2023-04-15T11:23:09;4.93;;;4.07;;
75234;SDS011;63817;51.228;-1.472;2023-04-15T11:25:34;5.13;;;4.28;;
75234;SDS011;63817;51.228;-1.472;2023-04-15T11:28:03;4.53;;;3.25;;
75234;SDS011;63817;51.228;-1.472;2023-04-15T11:30:29;4.05;;;3.65;;
75234;SDS011;63817;51.228;-1.472;2023-04-15T11:33:02;5.45;;;3.70;;
75234;SDS011;63817;51.228;-1.472;2023-04-15T11:35:29;4.47;;;3.25;;
75234;SDS011;63817;51.228;-1.472;2023-04-15T11:37:55;4.47;;;3.58;;
75234;SDS011;63817;51.228;-1.472;2023-04-15T11:40:22;7.57;;;4.28;;
75234;SDS011;63817;51.228;-1.472;2023-04-15T11:48:35;5.32;;;3.35;;
75234;SDS011;63817;51.228;-1.472;2023-04-15T11:51:04;3.67;;;3.35;;
75234;SDS011;63817;51.228;-1.472;2023-04-15T11:53:44;5.50;;;2.70;;
75234;SDS011;63817;51.228;-1.472;2023-04-15T11:56:15;3.30;;;3.00;;
75234;SDS011;63817;51.228;-1.472;2023-04-15T11:58:48;3.80;;;3.40;;
75234;SDS011;63817;51.228;-1.472;2023-04-15T12:01:16;6.45;;;3.67;;
75234;SDS011;63817;51.228;-1.472;2023-04-15T12:03:44;4.95;;;3.58;;
75234;SDS011;63817;51.228;-1.472;2023-04-15T12:16:28;4.20;;;3.20;;
75234;SDS011;63817;51.228;-1.472;2023-04-15T12:18:54;4.13;;;3.00;;
75234;SDS011;63817;51.228;-1.472;2023-04-15T12:21:31;3.10;;;2.80;;
75234;SDS011;63817;51.228;-1.472;2023-04-15T12:24:02;2.42;;;2.22;;
75234;SDS011;63817;51.228;-1.472;2023-04-15T12:29:10;5.22;;;3.22;;
75234;SDS011;63817;51.228;-1.472;2023-04-15T12:31:42;3.75;;;2.63;;
75234;SDS011;63817;51.228;-1.472;2023-04-15T12:34:12;4.25;;;2.75;;
75234;SDS011;63817;51.228;-1.472;2023-04-15T12:36:38;3.28;;;2.60;;
75234;SDS011;63817;51.228;-1.472;2023-04-15T12:39:04;3.80;;;3.25;;
75234;SDS011;63817;51.228;-1.472;2023-04-15T12:41:30;3.97;;;3.15;;
75234;SDS011;63817;51.228;-1.472;2023-04-15T12:43:56;4.88;;;3.88;;
75234;SDS011;63817;51.228;-1.472;2023-04-15T12:46:21;4.38;;;3.40;;
75234;SDS011;63817;51.228;-1.472;2023-04-15T12:48:47;4.45;;;3.42;;
75234;SDS011;63817;51.228;-1.472;2023-04-15T12:51:12;3.97;;;3.17;;
75234;SDS011;63817;51.228;-1.472;2023-04-15T12:53:38;5.60;;;3.67;;
75234;SDS011;63817;51.228;-1.472;2023-04-15T12:56:04;4.53;;;3.60;;
75234;SDS011;63817;51.228;-1.472;2023-04-15T12:58:30;4.65;;;3.42;;
75234;SDS011;63817;51.228;-1.472;2023-04-15T13:00:56;4.22;;;3.30;;
75234;SDS011;63817;51.228;-1.472;2023-04-15T13:03:21;8.15;;;3.22;;
75234;SDS011;63817;51.228;-1.472;2023-04-15T13:05:47;8.45;;;4.05;;
75234;SDS011;63817;51.228;-1.472;2023-04-15T13:08:12;7.75;;;4.05;;
75234;SDS011;63817;51.228;-1.472;2023-04-15T13:10:37;4.97;;;3.88;;
75234;SDS011;63817;51.228;-1.472;2023-04-15T13:13:03;3.95;;;3.30;;
75234;SDS011;63817;51.228;-1.472;2023-04-15T13:15:29;4.57;;;3.65;;
75234;SDS011;63817;51.228;-1.472;2023-04-15T13:17:54;5.75;;;3.60;;
75234;SDS011;63817;51.228;-1.472;2023-04-15T13:20:20;5.32;;;3.47;;
75234;SDS011;63817;51.228;-1.472;2023-04-15T13:22:46;5.55;;;3.80;;
75234;SDS011;63817;51.228;-1.472;2023-04-15T13:25:11;6.43;;;3.50;;
75234;SDS011;63817;51.228;-1.472;2023-04-15T13:27:37;4.10;;;3.20;;
75234;SDS011;63817;51.228;-1.472;2023-04-15T13:30:02;5.47;;;3.72;;
75234;SDS011;63817;51.228;-1.472;2023-04-15T13:32:29;5.57;;;3.63;;
75234;SDS011;63817;51.228;-1.472;2023-04-15T13:34:54;4.50;;;3.60;;
75234;SDS011;63817;51.228;-1.472;2023-04-15T13:37:21;4.45;;;3.50;;
75234;SDS011;63817;51.228;-1.472;2023-04-15T13:39:50;6.68;;;3.40;;
75234;SDS011;63817;51.228;-1.472;2023-04-15T13:42:16;3.65;;;3.08;;
75234;SDS011;63817;51.228;-1.472;2023-04-15T13:44:41;4.40;;;3.42;;
75234;SDS011;63817;51.228;-1.472;2023-04-15T13:47:07;4.50;;;3.30;;
75234;SDS011;63817;51.228;-1.472;2023-04-15T13:49:32;6.70;;;3.42;;
75234;SDS011;63817;51.228;-1.472;2023-04-15T13:51:58;7.57;;;2.53;;
75234;SDS011;63817;51.228;-1.472;2023-04-15T13:54:23;3.60;;;3.00;;
75234;SDS011;63817;51.228;-1.472;2023-04-15T13:56:48;3.17;;;2.63;;
75234;SDS011;63817;51.228;-1.472;2023-04-15T13:59:14;3.53;;;2.67;;
75234;SDS011;63817;51.228;-1.472;2023-04-15T14:01:40;3.72;;;2.42;;
75234;SDS011;63817;51.228;-1.472;2023-04-15T14:04:05;6.03;;;3.28;;
75234;SDS011;63817;51.228;-1.472;2023-04-15T14:06:30;6.40;;;3.78;;
75234;SDS011;63817;51.228;-1.472;2023-04-15T14:08:56;6.75;;;3.70;;
75234;SDS011;63817;51.228;-1.472;2023-04-15T14:11:21;4.95;;;3.78;;
75234;SDS011;63817;51.228;-1.472;2023-04-15T14:13:47;4.35;;;3.40;;
75234;SDS011;63817;51.228;-1.472;2023-04-15T14:16:12;4.53;;;3.40;;
75234;SDS011;63817;51.228;-1.472;2023-04-15T14:18:38;3.67;;;2.85;;
75234;SDS011;63817;51.228;-1.472;2023-04-15T14:21:04;4.70;;;3.47;;
75234;SDS011;63817;51.228;-1.472;2023-04-15T14:23:30;3.63;;;2.97;;
75234;SDS011;63817;51.228;-1.472;2023-04-15T14:25:56;2.97;;;2.65;;
75234;SDS011;63817;51.228;-1.472;2023-04-15T14:28:21;4.70;;;3.15;;
75234;SDS011;63817;51.228;-1.472;2023-04-15T14:30:47;2.83;;;2.55;;
75234;SDS011;63817;51.228;-1.472;2023-04-15T14:33:12;3.42;;;2.67;;
75234;SDS011;63817;51.228;-1.472;2023-04-15T14:35:38;4.80;;;2.92;;
75234;SDS011;63817;51.228;-1.472;2023-04-15T14:38:03;3.17;;;2.70;;
75234;SDS011;63817;51.228;-1.472;2023-04-15T14:40:30;4.22;;;2.45;;
75234;SDS011;63817;51.228;-1.472;2023-04-15T14:42:55;2.92;;;2.40;;
75234;SDS011;63817;51.228;-1.472;2023-04-15T14:45:21;2.83;;;2.40;;
75234;SDS011;63817;51.228;-1.472;2023-04-15T14:47:46;3.72;;;2.30;;
75234;SDS011;63817;51.228;-1.472;2023-04-15T14:50:12;3.90;;;2.50;;
75234;SDS011;63817;51.228;-1.472;2023-04-15T14:52:37;3.50;;;2.50;;